createdAt,value
2022-12-04T00:03:17.174Z,101726.34
2022-12-04T00:07:18.686Z,101732.38
2022-12-04T00:11:24.321Z,101737.00
2022-12-04T00:15:26.783Z,101733.41
2022-12-04T00:19:28.497Z,101730.44
2022-12-04T00:23:29.926Z,101724.16
2022-12-04T00:27:31.381Z,101722.00
2022-12-04T00:31:32.965Z,101719.22
2022-12-04T00:35:34.447Z,101724.66
2022-12-04T00:39:35.867Z,101719.75
2022-12-04T00:43:37.637Z,101711.56
2022-12-04T00:47:39.087Z,101720.31
2022-12-04T00:51:40.625Z,101718.41
2022-12-04T00:55:43.255Z,101724.09
2022-12-04T00:59:44.691Z,101722.47
2022-12-04T01:03:47.106Z,101716.22
2022-12-04T01:07:48.629Z,101724.06
2022-12-04T01:11:50.117Z,101714.84
2022-12-04T01:15:52.027Z,101725.91
2022-12-04T01:19:53.935Z,101726.00
2022-12-04T01:23:55.639Z,101723.03
2022-12-04T01:27:57.176Z,101724.09
2022-12-04T01:31:58.775Z,101724.09
2022-12-04T01:36:01.869Z,101713.78
2022-12-04T01:40:04.631Z,101717.63
2022-12-04T01:44:16.708Z,101717.00
2022-12-04T01:48:39.973Z,101704.25
2022-12-04T01:52:41.739Z,101708.91
2022-12-04T01:56:58.335Z,101708.38
2022-12-04T02:01:08.475Z,101705.03
2022-12-04T02:05:14.339Z,101704.22
2022-12-04T02:09:17.600Z,101696.31
2022-12-04T02:14:00.440Z,101692.28
2022-12-04T02:18:18.886Z,101694.91
2022-12-04T02:23:00.977Z,101677.78
2022-12-04T02:27:36.272Z,101685.69
2022-12-04T02:31:50.921Z,101688.38
2022-12-04T02:36:03.585Z,101683.78
2022-12-04T02:40:07.437Z,101682.94
2022-12-04T02:44:16.379Z,101658.41
2022-12-04T02:48:20.214Z,101661.38
2022-12-04T02:52:28.946Z,101662.44
2022-12-04T02:56:34.479Z,101646.09
2022-12-04T03:00:38.622Z,101644.47
2022-12-04T03:04:42.456Z,101650.75
2022-12-04T03:08:53.259Z,101653.47
2022-12-04T03:13:00.303Z,101663.00
2022-12-04T03:17:21.679Z,101654.03
2022-12-04T03:21:28.162Z,101651.06
2022-12-04T03:25:36.382Z,101648.88
2022-12-04T03:29:52.739Z,101641.50
2022-12-04T03:33:58.386Z,101648.31
2022-12-04T03:38:38.201Z,101658.19
2022-12-04T03:42:49.841Z,101645.94
2022-12-04T03:47:15.969Z,101647.78
2022-12-04T03:51:22.770Z,101647.78
2022-12-04T03:55:41.801Z,101657.63
2022-12-04T04:00:12.034Z,101656.56
2022-12-04T04:04:19.618Z,101656.59
2022-12-04T04:08:26.701Z,101650.91
2022-12-04T04:12:33.684Z,101636.41
2022-12-04T04:16:57.155Z,101645.69
2022-12-04T04:21:19.491Z,101651.41
2022-12-04T04:25:24.731Z,101639.19
2022-12-04T04:29:26.945Z,101631.28
2022-12-04T04:33:30.516Z,101627.19
2022-12-04T04:37:53.148Z,101624.47
2022-12-04T04:42:16.661Z,101633.19
2022-12-04T04:46:28.701Z,101639.44
2022-12-04T04:50:33.113Z,101629.34
2022-12-04T04:54:36.939Z,101630.16
2022-12-04T04:58:38.605Z,101630.47
2022-12-04T05:02:40.311Z,101634.25
2022-12-04T05:06:41.867Z,101634.84
2022-12-04T05:10:43.330Z,101634.31
2022-12-04T05:14:47.233Z,101636.47
2022-12-04T05:19:39.569Z,101640.00
2022-12-04T05:23:41.042Z,101644.38
2022-12-04T05:27:42.667Z,101638.66
2022-12-04T05:31:44.236Z,101630.78
2022-12-04T05:35:45.720Z,101636.78
2022-12-04T05:39:47.835Z,101647.38
2022-12-04T05:43:49.283Z,101640.56
2022-12-04T05:47:50.687Z,101650.13
2022-12-04T05:51:52.082Z,101652.81
2022-12-04T05:55:58.605Z,101642.75
2022-12-04T06:00:00.071Z,101628.31
2022-12-04T06:04:01.563Z,101627.78
2022-12-04T06:08:03.120Z,101630.53
2022-12-04T06:12:05.120Z,101635.72
2022-12-04T06:16:06.691Z,101638.16
2022-12-04T06:20:11.817Z,101633.75
2022-12-04T06:24:22.310Z,101630.53
2022-12-04T06:28:23.712Z,101633.78
2022-12-04T06:32:25.141Z,101634.06
2022-12-04T06:36:26.613Z,101633.00
2022-12-04T06:40:28.058Z,101633.25
2022-12-04T06:44:29.480Z,101639.22
2022-12-04T06:48:31.242Z,101636.25
2022-12-04T06:52:34.002Z,101642.00
2022-12-04T06:56:35.557Z,101629.97
2022-12-04T07:00:37.068Z,101636.00
2022-12-04T07:04:38.561Z,101643.06
2022-12-04T07:08:40.022Z,101627.53
2022-12-04T07:12:41.492Z,101642.56
2022-12-04T07:16:43.135Z,101631.91
2022-12-04T07:20:44.687Z,101628.38
2022-12-04T07:24:46.112Z,101632.19
2022-12-04T07:28:48.280Z,101624.00
2022-12-04T07:32:49.724Z,101628.91
2022-12-04T07:36:51.191Z,101640.38
2022-12-04T07:40:56.378Z,101635.75
2022-12-04T07:44:57.815Z,101644.47
2022-12-04T07:48:59.541Z,101638.22
2022-12-04T07:53:01.012Z,101638.22
2022-12-04T07:57:02.481Z,101630.53
2022-12-04T08:01:20.604Z,101642.56
2022-12-04T08:05:22.136Z,101645.84
2022-12-04T08:09:23.573Z,101654.31
2022-12-04T08:13:25.071Z,101659.22
2022-12-04T08:17:26.919Z,101662.25
2022-12-04T08:21:30.311Z,101654.03
2022-12-04T08:25:31.730Z,101661.44
2022-12-04T08:29:33.168Z,101650.78
2022-12-04T08:33:34.979Z,101658.44
2022-12-04T08:37:36.423Z,101652.97
2022-12-04T08:41:38.064Z,101662.25
2022-12-04T08:45:39.480Z,101656.25
2022-12-04T08:49:40.902Z,101661.44
2022-12-04T08:53:42.474Z,101650.78
2022-12-04T08:57:43.900Z,101648.63
2022-12-04T09:01:45.471Z,101649.44
2022-12-04T09:05:47.395Z,101659.53
2022-12-04T09:09:48.789Z,101669.94
2022-12-04T09:13:50.793Z,101668.31
2022-12-04T09:17:52.241Z,101673.22
2022-12-04T09:21:54.774Z,101671.28
2022-12-04T09:25:56.506Z,101674.31
2022-12-04T09:29:58.199Z,101664.47
2022-12-04T09:34:01.115Z,101662.28
2022-12-04T09:38:02.541Z,101658.19
2022-12-04T09:42:09.008Z,101648.09
2022-12-04T09:46:18.799Z,101648.66
2022-12-04T09:50:20.215Z,101651.66
2022-12-04T09:54:26.737Z,101653.00
2022-12-04T09:58:41.769Z,101642.63
2022-12-04T10:02:48.529Z,101623.53
2022-12-04T10:06:49.960Z,101618.06
2022-12-04T10:10:57.314Z,101622.97
2022-12-04T10:15:37.000Z,101615.63
2022-12-04T10:19:56.268Z,101610.16
2022-12-04T10:24:06.736Z,101612.06
2022-12-04T10:28:32.997Z,101603.03
2022-12-04T10:32:35.120Z,101599.22
2022-12-04T10:36:36.552Z,101598.41
2022-12-04T10:40:44.220Z,101606.03
2022-12-04T10:44:45.652Z,101590.75
2022-12-04T10:48:50.627Z,101599.47
2022-12-04T10:52:52.064Z,101593.47
2022-12-04T10:57:05.881Z,101591.81
2022-12-04T11:01:11.959Z,101583.59
2022-12-04T11:05:28.957Z,101579.22
2022-12-04T11:09:31.647Z,101586.31
2022-12-04T11:13:33.715Z,101584.69
2022-12-04T11:17:35.362Z,101570.75
2022-12-04T11:21:38.767Z,101579.78
2022-12-04T11:25:47.021Z,101569.91
2022-12-04T11:29:49.967Z,101565.00
2022-12-04T11:33:55.647Z,101557.63
2022-12-04T11:38:07.402Z,101569.31
2022-12-04T11:42:23.196Z,101571.00
2022-12-04T11:46:28.071Z,101556.50
2022-12-04T11:50:34.668Z,101556.50
2022-12-04T11:54:42.284Z,101545.31
2022-12-04T11:58:46.608Z,101546.94
2022-12-04T12:03:11.940Z,101543.69
2022-12-04T12:07:37.479Z,101542.63
2022-12-04T12:11:48.939Z,101547.50
2022-12-04T12:16:10.727Z,101538.22
2022-12-04T12:20:33.476Z,101543.16
2022-12-04T12:25:05.938Z,101536.59
2022-12-04T12:29:29.360Z,101536.88
2022-12-04T12:33:44.287Z,101539.59
2022-12-04T12:37:57.458Z,101537.94
2022-12-04T12:42:01.253Z,101543.41
2022-12-04T12:46:11.544Z,101533.50
2022-12-04T12:50:21.376Z,101546.09
2022-12-04T12:54:33.879Z,101533.28
2022-12-04T12:58:41.930Z,101548.84
2022-12-04T13:02:50.295Z,101538.22
2022-12-04T13:07:04.199Z,101545.03
2022-12-04T13:11:13.473Z,101543.59
2022-12-04T13:15:17.262Z,101536.28
2022-12-04T13:19:29.333Z,101534.34
2022-12-04T13:23:45.967Z,101537.31
2022-12-04T13:28:10.597Z,101522.81
2022-12-04T13:32:37.223Z,101512.16
2022-12-04T13:36:58.885Z,101506.69
2022-12-04T13:41:04.146Z,101499.56
2022-12-04T13:45:26.515Z,101489.69
2022-12-04T13:49:33.354Z,101485.34
2022-12-04T13:53:37.706Z,101479.56
2022-12-04T13:57:40.222Z,101475.19
2022-12-04T14:01:46.666Z,101474.09
2022-12-04T14:05:48.665Z,101487.25
2022-12-04T14:09:53.382Z,101496.47
2022-12-04T14:13:57.534Z,101497.03
2022-12-04T14:18:11.053Z,101489.88
2022-12-04T14:22:36.089Z,101495.91
2022-12-04T14:27:10.558Z,101488.31
2022-12-04T14:31:19.388Z,101479.56
2022-12-04T14:35:24.474Z,101485.59
2022-12-04T14:39:40.886Z,101479.06
2022-12-04T14:43:45.339Z,101492.44
2022-12-04T14:47:52.631Z,101486.13
2022-12-04T14:52:00.295Z,101478.75
2022-12-04T14:56:07.479Z,101478.53
2022-12-04T15:00:22.373Z,101475.25
2022-12-04T15:04:29.196Z,101471.72
2022-12-04T15:08:30.828Z,101471.16
2022-12-04T15:12:35.393Z,101480.16
2022-12-04T15:16:36.848Z,101486.13
2022-12-04T15:20:50.206Z,101482.34
2022-12-04T15:24:55.686Z,101501.97
2022-12-04T15:29:01.126Z,101504.19
2022-12-04T15:33:03.411Z,101488.31
2022-12-04T15:37:11.454Z,101495.97
2022-12-04T15:41:42.379Z,101500.38
2022-12-04T15:45:44.245Z,101505.28
2022-12-04T15:49:45.703Z,101508.84
2022-12-04T15:53:47.779Z,101500.63
2022-12-04T15:58:08.612Z,101497.38
2022-12-04T16:02:23.418Z,101496.50
2022-12-04T16:06:30.509Z,101503.06
2022-12-04T16:10:37.476Z,101504.97
2022-12-04T16:15:00.648Z,101510.69
2022-12-04T16:19:36.907Z,101506.91
2022-12-04T16:23:38.324Z,101510.38
2022-12-04T16:27:39.769Z,101514.47
2022-12-04T16:31:41.346Z,101498.63
2022-12-04T16:35:42.940Z,101498.59
2022-12-04T16:39:45.002Z,101501.91
2022-12-04T16:43:53.444Z,101504.63
2022-12-04T16:47:54.853Z,101501.91
2022-12-04T16:51:56.384Z,101499.72
2022-12-04T16:55:58.016Z,101506.00
2022-12-04T16:59:59.609Z,101506.00
2022-12-04T17:04:01.310Z,101506.25
2022-12-04T17:08:02.953Z,101509.47
2022-12-04T17:12:04.572Z,101505.19
2022-12-04T17:16:09.034Z,101499.66
2022-12-04T17:20:13.309Z,101497.47
2022-12-04T17:24:17.341Z,101490.66
2022-12-04T17:28:22.059Z,101490.69
2022-12-04T17:32:28.165Z,101486.81
2022-12-04T17:36:29.635Z,101493.34
2022-12-04T17:40:31.266Z,101496.34
2022-12-04T17:44:33.160Z,101497.38
2022-12-04T17:48:34.605Z,101495.72
2022-12-04T17:52:36.119Z,101491.97
2022-12-04T17:56:38.173Z,101487.56
2022-12-04T18:00:39.670Z,101483.78
2022-12-04T18:04:42.652Z,101488.16
2022-12-04T18:08:49.808Z,101478.81
2022-12-04T18:12:51.780Z,101486.50
2022-12-04T18:16:54.969Z,101483.72
2022-12-04T18:21:11.340Z,101488.69
2022-12-04T18:25:12.798Z,101482.94
2022-12-04T18:29:17.815Z,101490.84
2022-12-04T18:33:19.286Z,101482.88
2022-12-04T18:37:20.721Z,101485.91
2022-12-04T18:41:22.788Z,101490.78
2022-12-04T18:45:25.658Z,101484.56
2022-12-04T18:49:27.137Z,101491.91
2022-12-04T18:53:28.786Z,101486.91
2022-12-04T18:57:30.222Z,101493.47
2022-12-04T19:01:31.869Z,101490.25
2022-12-04T19:05:33.491Z,101499.81
2022-12-04T19:10:21.296Z,101496.78
2022-12-04T19:13:58.280Z,101488.25
2022-12-04T19:17:59.752Z,101495.19
2022-12-04T19:22:02.049Z,101489.88
2022-12-04T19:26:09.617Z,101505.22
2022-12-04T19:30:11.399Z,101512.00
2022-12-04T19:34:13.155Z,101505.22
2022-12-04T19:38:14.629Z,101499.47
2022-12-04T19:42:16.156Z,101505.88
2022-12-04T19:46:21.263Z,101508.97
2022-12-04T19:50:22.775Z,101497.72
2022-12-04T19:54:26.053Z,101496.91
2022-12-04T19:58:31.524Z,101505.97
2022-12-04T20:02:39.627Z,101501.19
2022-12-04T20:06:44.652Z,101490.59
2022-12-04T20:10:46.129Z,101492.75
2022-12-04T20:14:47.914Z,101484.56
2022-12-04T20:18:49.644Z,101486.47
2022-12-04T20:22:51.108Z,101480.16
2022-12-04T20:26:52.533Z,101472.97
2022-12-04T20:30:54.358Z,101467.56
2022-12-04T20:34:55.898Z,101479.28
2022-12-04T20:38:59.066Z,101474.56
2022-12-04T20:43:00.507Z,101481.38
2022-12-04T20:47:01.982Z,101485.25
2022-12-04T20:51:03.464Z,101474.50
2022-12-04T20:55:08.873Z,101483.03
2022-12-04T20:59:13.111Z,101480.31
2022-12-04T21:03:15.360Z,101481.97
2022-12-04T21:07:16.966Z,101483.59
2022-12-04T21:11:18.954Z,101477.34
2022-12-04T21:15:39.031Z,101482.03
2022-12-04T21:19:40.500Z,101479.38
2022-12-04T21:23:41.939Z,101477.22
2022-12-04T21:27:43.958Z,101475.50
2022-12-04T21:31:45.554Z,101462.88
2022-12-04T21:35:47.085Z,101473.38
2022-12-04T21:39:48.896Z,101470.91
2022-12-04T21:43:50.332Z,101466.78
2022-12-04T21:47:54.788Z,101466.88
2022-12-04T21:51:58.213Z,101469.28
2022-12-04T21:56:03.794Z,101465.75
2022-12-04T22:00:06.061Z,101465.59
2022-12-04T22:04:07.573Z,101460.34
2022-12-04T22:08:10.733Z,101462.53
2022-12-04T22:12:41.241Z,101461.47
2022-12-04T22:16:38.366Z,101447.31
2022-12-04T22:20:43.357Z,101454.88
2022-12-04T22:24:44.797Z,101453.78
2022-12-04T22:28:46.541Z,101450.59
2022-12-04T22:32:48.021Z,101445.72
2022-12-04T22:36:49.927Z,101444.25
2022-12-04T22:40:51.586Z,101443.69
2022-12-04T22:44:53.022Z,101443.13
2022-12-04T22:48:54.453Z,101447.25
2022-12-04T22:52:55.863Z,101439.03
2022-12-04T22:56:57.295Z,101440.66
2022-12-04T23:00:58.726Z,101435.19
2022-12-04T23:05:00.288Z,101428.31
2022-12-04T23:09:05.936Z,101429.41
2022-12-04T23:13:07.384Z,101431.34
2022-12-04T23:17:08.983Z,101427.03
2022-12-04T23:21:13.506Z,101430.03
2022-12-04T23:25:15.142Z,101433.78
2022-12-04T23:29:44.877Z,101432.97
2022-12-04T23:33:39.675Z,101432.63
2022-12-04T23:37:41.096Z,101436.25
2022-12-04T23:41:42.550Z,101427.75
2022-12-04T23:45:44.473Z,101427.16
2022-12-04T23:49:45.955Z,101421.63
2022-12-04T23:53:50.224Z,101417.47
2022-12-04T23:57:52.076Z,101423.84
